Time;durP1;ratioP1;P1;durP2;ratioP2;P2;SDS_P1;SDS_P2;PMS_P1;PMS_P2;Temp;Humidity;BMP_temperature;BMP_pressure;BME280_temperature;BME280_humidity;BME280_pressure;Samples;Min_cycle;Max_cycle;Signal;HPM_P1;HPM_P2
2023/09/09 00:00:59;;;;;;;5.93;3.30;;;;;;;;;;5956944;28;20051;-75
2023/09/09 00:03:50;;;;;;;2.90;2.25;;;;;;;;;;5945865;28;20143;-74
2023/09/09 00:06:41;;;;;;;4.20;3.22;;;;;;;;;;5957666;28;20040;-74
2023/09/09 00:09:32;;;;;;;3.60;2.65;;;;;;;;;;5957835;28;20110;-74
2023/09/09 00:12:23;;;;;;;9.30;3.33;;;;;;;;;;5957445;28;20047;-76
2023/09/09 00:15:14;;;;;;;2.83;2.30;;;;;;;;;;5956490;28;20122;-74
2023/09/09 00:18:05;;;;;;;2.50;2.30;;;;;;;;;;5939705;28;20047;-74
2023/09/09 00:20:55;;;;;;;3.55;2.53;;;;;;;;;;5958029;28;20578;-74
2023/09/09 00:23:46;;;;;;;6.68;2.65;;;;;;;;;;5957492;28;20050;-75
2023/09/09 00:26:37;;;;;;;3.22;2.53;;;;;;;;;;5956122;28;20040;-74
2023/09/09 00:29:29;;;;;;;5.18;3.20;;;;;;;;;;5956818;28;20123;-74
2023/09/09 00:32:20;;;;;;;4.78;3.03;;;;;;;;;;5957266;28;20114;-74
2023/09/09 00:35:10;;;;;;;3.63;2.45;;;;;;;;;;5957375;28;20105;-74
2023/09/09 00:38:01;;;;;;;4.50;2.42;;;;;;;;;;5951994;28;20044;-75
2023/09/09 00:41:15;;;;;;;4.43;3.58;;;;;;;;;;5955115;28;20113;-74
2023/09/09 00:44:08;;;;;;;4.63;2.15;;;;;;;;;;5957195;28;20039;-74
2023/09/09 00:47:00;;;;;;;8.98;3.40;;;;;;;;;;5957718;28;20047;-74
2023/09/09 00:49:51;;;;;;;3.78;2.13;;;;;;;;;;5939770;28;20173;-74
2023/09/09 00:52:42;;;;;;;4.72;2.42;;;;;;;;;;5953790;28;20419;-75
2023/09/09 00:55:39;;;;;;;1.98;1.77;;;;;;;;;;5960095;28;20044;-74
2023/09/09 00:58:30;;;;;;;2.83;2.33;;;;;;;;;;5961188;28;20035;-74
2023/09/09 01:01:21;;;;;;;3.03;2.15;;;;;;;;;;5961263;28;20414;-74
2023/09/09 01:04:12;;;;;;;2.97;1.65;;;;;;;;;;5961301;28;20046;-73
2023/09/09 01:07:04;;;;;;;3.05;2.00;;;;;;;;;;5961083;28;20044;-74
2023/09/09 01:09:55;;;;;;;2.90;2.50;;;;;;;;;;5960362;28;20474;-74
2023/09/09 01:12:46;;;;;;;5.30;3.22;;;;;;;;;;5957719;28;20055;-74
2023/09/09 01:15:37;;;;;;;3.13;2.65;;;;;;;;;;5959770;28;20046;-73
2023/09/09 01:18:30;;;;;;;2.00;1.80;;;;;;;;;;5942970;28;20042;-74
2023/09/09 01:21:23;;;;;;;2.85;2.00;;;;;;;;;;5960449;28;20056;-74
2023/09/09 01:24:15;;;;;;;8.23;3.15;;;;;;;;;;5960006;28;20093;-75
2023/09/09 01:27:06;;;;;;;2.67;2.08;;;;;;;;;;5958440;28;20048;-75
2023/09/09 01:29:57;;;;;;;3.42;2.88;;;;;;;;;;5960686;28;20040;-74
2023/09/09 01:32:48;;;;;;;4.25;2.53;;;;;;;;;;5955437;28;20115;-75
2023/09/09 01:35:39;;;;;;;4.53;2.95;;;;;;;;;;5955373;28;20044;-75
2023/09/09 01:38:34;;;;;;;2.22;1.95;;;;;;;;;;5960438;28;20036;-74
2023/09/09 01:41:25;;;;;;;3.03;2.60;;;;;;;;;;5960285;28;20135;-75
2023/09/09 01:44:15;;;;;;;4.07;2.20;;;;;;;;;;5960177;28;20062;-75
2023/09/09 01:47:06;;;;;;;4.50;2.20;;;;;;;;;;5959101;28;20079;-74
2023/09/09 01:49:57;;;;;;;2.67;2.22;;;;;;;;;;5960464;28;20039;-74
2023/09/09 01:52:48;;;;;;;2.92;1.90;;;;;;;;;;5955852;28;20044;-78
2023/09/09 01:55:38;;;;;;;4.43;3.20;;;;;;;;;;5955082;28;20043;-74
2023/09/09 01:58:29;;;;;;;3.83;2.72;;;;;;;;;;5941712;28;20402;-75
2023/09/09 02:01:20;;;;;;;4.47;2.08;;;;;;;;;;5958939;28;20050;-75
2023/09/09 02:04:11;;;;;;;5.35;2.83;;;;;;;;;;5958623;28;20044;-74
2023/09/09 02:07:02;;;;;;;3.10;2.72;;;;;;;;;;5958801;28;20051;-74
2023/09/09 02:09:53;;;;;;;10.55;2.83;;;;;;;;;;5959443;28;20043;-75
2023/09/09 02:12:43;;;;;;;3.00;2.38;;;;;;;;;;5956126;28;20056;-74
2023/09/09 02:15:34;;;;;;;3.67;2.25;;;;;;;;;;5953202;28;20043;-74
2023/09/09 02:18:25;;;;;;;4.80;3.08;;;;;;;;;;5957458;28;20063;-74
2023/09/09 02:21:16;;;;;;;2.88;2.28;;;;;;;;;;5958475;28;20047;-76
2023/09/09 02:24:06;;;;;;;5.25;3.08;;;;;;;;;;5958870;28;20043;-75
2023/09/09 02:26:57;;;;;;;3.22;2.28;;;;;;;;;;5941768;28;20387;-74
2023/09/09 02:29:48;;;;;;;3.15;2.40;;;;;;;;;;5958785;28;20044;-75
2023/09/09 02:32:39;;;;;;;3.85;2.45;;;;;;;;;;5955158;28;20050;-74
2023/09/09 02:35:30;;;;;;;5.05;2.95;;;;;;;;;;5970835;27;20145;-74
2023/09/09 02:38:21;;;;;;;4.68;2.63;;;;;;;;;;5981668;27;20055;-75
2023/09/09 02:41:11;;;;;;;4.10;2.45;;;;;;;;;;5965161;27;20478;-75
2023/09/09 02:44:02;;;;;;;2.40;2.00;;;;;;;;;;5982851;27;20049;-74
2023/09/09 02:46:53;;;;;;;4.00;2.05;;;;;;;;;;5983426;27;20047;-74
2023/09/09 02:49:44;;;;;;;3.83;2.78;;;;;;;;;;5982839;27;20070;-76
2023/09/09 02:52:35;;;;;;;4.00;3.28;;;;;;;;;;5980939;27;20031;-74
2023/09/09 02:55:25;;;;;;;2.60;2.05;;;;;;;;;;5957310;27;20039;-74
2023/09/09 02:58:16;;;;;;;8.77;2.67;;;;;;;;;;5982542;27;20099;-75
2023/09/09 03:01:07;;;;;;;2.65;2.17;;;;;;;;;;5982227;27;20045;-75
2023/09/09 03:03:58;;;;;;;2.53;1.95;;;;;;;;;;5983227;27;20214;-75
2023/09/09 03:06:48;;;;;;;6.70;2.63;;;;;;;;;;5982485;27;20068;-74
2023/09/09 03:09:39;;;;;;;5.80;2.70;;;;;;;;;;5982365;27;20047;-75
2023/09/09 03:12:30;;;;;;;12.70;2.78;;;;;;;;;;5982246;27;20057;-74
2023/09/09 03:15:20;;;;;;;2.72;2.35;;;;;;;;;;5982171;27;20051;-73
2023/09/09 03:18:11;;;;;;;3.63;1.92;;;;;;;;;;5982093;27;20044;-75
2023/09/09 03:21:02;;;;;;;3.40;1.75;;;;;;;;;;5982234;27;20043;-74
2023/09/09 03:23:53;;;;;;;4.35;1.60;;;;;;;;;;5982622;27;20043;-74
2023/09/09 03:26:44;;;;;;;2.08;1.30;;;;;;;;;;5982016;27;20539;-74
2023/09/09 03:29:34;;;;;;;3.17;2.63;;;;;;;;;;5982106;27;20113;-76
2023/09/09 03:32:25;;;;;;;5.07;2.13;;;;;;;;;;5981735;27;20042;-75
2023/09/09 03:35:16;;;;;;;2.28;1.52;;;;;;;;;;5965942;27;20036;-73
2023/09/09 03:38:07;;;;;;;1.73;1.48;;;;;;;;;;5972589;27;20047;-74
2023/09/09 03:40:58;;;;;;;3.53;2.92;;;;;;;;;;5967911;27;20047;-74
2023/09/09 03:43:48;;;;;;;3.78;2.75;;;;;;;;;;5958737;28;20046;-74
2023/09/09 03:46:39;;;;;;;4.03;2.10;;;;;;;;;;5957936;28;20040;-74
2023/09/09 03:49:30;;;;;;;2.50;2.10;;;;;;;;;;5957857;28;20089;-75
2023/09/09 03:52:21;;;;;;;4.15;2.28;;;;;;;;;;5957684;28;20079;-73
2023/09/09 03:55:12;;;;;;;12.95;2.78;;;;;;;;;;5957708;28;20039;-74
2023/09/09 03:58:03;;;;;;;2.40;2.20;;;;;;;;;;5952222;28;20059;-74
2023/09/09 04:01:09;;;;;;;4.03;2.78;;;;;;;;;;5955917;28;20154;-74
2023/09/09 04:04:00;;;;;;;4.20;2.67;;;;;;;;;;5940332;28;20048;-74
2023/09/09 04:06:50;;;;;;;3.05;2.42;;;;;;;;;;5958000;28;20039;-74
2023/09/09 04:09:41;;;;;;;3.20;2.42;;;;;;;;;;5939582;28;20050;-76
2023/09/09 04:12:32;;;;;;;2.28;2.08;;;;;;;;;;5957482;28;20363;-74
2023/09/09 04:15:22;;;;;;;2.83;2.33;;;;;;;;;;5957448;28;20059;-74
2023/09/09 04:18:13;;;;;;;4.18;2.75;;;;;;;;;;5957584;28;20054;-76
2023/09/09 04:21:06;;;;;;;2.97;1.80;;;;;;;;;;5956166;28;20054;-75
2023/09/09 04:23:57;;;;;;;2.30;2.10;;;;;;;;;;5956798;28;20490;-74
2023/09/09 04:26:47;;;;;;;2.35;2.13;;;;;;;;;;5957707;28;20044;-74
2023/09/09 04:29:38;;;;;;;2.67;2.20;;;;;;;;;;5942956;28;20035;-74
2023/09/09 04:32:31;;;;;;;4.68;2.15;;;;;;;;;;5975858;27;20404;-75
2023/09/09 04:35:22;;;;;;;5.80;3.60;;;;;;;;;;5985753;27;20069;-74
2023/09/09 04:38:12;;;;;;;5.68;2.63;;;;;;;;;;5985719;27;20046;-75
2023/09/09 04:41:03;;;;;;;4.63;3.05;;;;;;;;;;5985168;27;20051;-76
2023/09/09 04:43:54;;;;;;;3.47;2.05;;;;;;;;;;5986180;27;20042;-74
2023/09/09 04:46:45;;;;;;;3.95;2.63;;;;;;;;;;5985631;27;20050;-75
2023/09/09 04:49:35;;;;;;;3.72;2.42;;;;;;;;;;5978366;27;20039;-75
2023/09/09 04:52:26;;;;;;;3.33;2.45;;;;;;;;;;5970203;27;20039;-75
2023/09/09 04:55:17;;;;;;;4.25;2.42;;;;;;;;;;5950825;28;20051;-74
2023/09/09 04:58:10;;;;;;;4.03;2.05;;;;;;;;;;5981695;27;20070;-74
2023/09/09 05:01:01;;;;;;;3.70;2.28;;;;;;;;;;5967585;27;20043;-75
2023/09/09 05:03:53;;;;;;;4.18;2.90;;;;;;;;;;5985489;27;20366;-74
2023/09/09 05:06:44;;;;;;;2.90;2.30;;;;;;;;;;5984980;27;20073;-75
2023/09/09 05:09:34;;;;;;;3.13;2.45;;;;;;;;;;5985246;27;20039;-74
2023/09/09 05:12:25;;;;;;;5.28;2.55;;;;;;;;;;5966469;27;20071;-76
2023/09/09 05:15:16;;;;;;;3.08;2.53;;;;;;;;;;5984613;27;20043;-74
2023/09/09 05:18:07;;;;;;;5.50;2.42;;;;;;;;;;5985013;27;20480;-74
2023/09/09 05:20:58;;;;;;;6.20;2.58;;;;;;;;;;5985243;27;20427;-75
2023/09/09 05:23:50;;;;;;;4.30;2.53;;;;;;;;;;5984384;27;20035;-74
2023/09/09 05:26:40;;;;;;;2.67;2.35;;;;;;;;;;5966345;27;20383;-75
2023/09/09 05:29:31;;;;;;;4.05;2.47;;;;;;;;;;5984449;27;20043;-75
2023/09/09 05:32:22;;;;;;;2.70;2.30;;;;;;;;;;5984097;27;20058;-73
2023/09/09 05:35:13;;;;;;;2.90;2.20;;;;;;;;;;5984169;27;20070;-76
2023/09/09 05:38:04;;;;;;;2.75;2.15;;;;;;;;;;5978536;27;20117;-74
2023/09/09 05:40:54;;;;;;;4.00;3.33;;;;;;;;;;5982231;27;20502;-74
2023/09/09 05:43:45;;;;;;;4.20;2.50;;;;;;;;;;5965703;27;20039;-75
2023/09/09 05:46:36;;;;;;;4.57;2.80;;;;;;;;;;5984118;27;20062;-75
2023/09/09 05:49:27;;;;;;;5.03;2.97;;;;;;;;;;5984082;27;20493;-74
2023/09/09 05:52:29;;;;;;;5.97;3.00;;;;;;;;;;5983709;27;20050;-73
2023/09/09 05:55:20;;;;;;;6.30;3.50;;;;;;;;;;5965572;27;20409;-75
2023/09/09 05:58:10;;;;;;;3.75;2.75;;;;;;;;;;5984017;27;20043;-74
2023/09/09 06:01:02;;;;;;;4.22;3.05;;;;;;;;;;5967939;27;20402;-75
2023/09/09 06:03:54;;;;;;;5.18;2.53;;;;;;;;;;5951408;27;20039;-74
2023/09/09 06:06:45;;;;;;;2.25;2.03;;;;;;;;;;5941734;27;20047;-75
2023/09/09 06:09:36;;;;;;;4.28;2.30;;;;;;;;;;5965952;27;20439;-74
2023/09/09 06:12:27;;;;;;;4.13;2.83;;;;;;;;;;5963617;27;20044;-75
2023/09/09 06:15:17;;;;;;;5.88;2.50;;;;;;;;;;5966916;27;20421;-75
2023/09/09 06:18:08;;;;;;;2.75;2.42;;;;;;;;;;5963261;27;20036;-75
2023/09/09 06:20:59;;;;;;;5.05;3.53;;;;;;;;;;5951776;27;20032;-74
2023/09/09 06:23:50;;;;;;;3.72;2.90;;;;;;;;;;5963835;27;20048;-75
2023/09/09 06:26:40;;;;;;;5.78;2.47;;;;;;;;;;5964548;27;20044;-75
2023/09/09 06:29:31;;;;;;;7.82;2.65;;;;;;;;;;5947463;27;20043;-75
2023/09/09 06:32:22;;;;;;;3.92;2.40;;;;;;;;;;5962438;27;20043;-74
2023/09/09 06:35:13;;;;;;;4.85;2.78;;;;;;;;;;5961947;27;20043;-75
2023/09/09 06:38:04;;;;;;;2.33;2.13;;;;;;;;;;5962156;27;20051;-75
2023/09/09 06:40:54;;;;;;;1.65;1.55;;;;;;;;;;5968890;27;20039;-74
2023/09/09 06:43:46;;;;;;;4.95;2.88;;;;;;;;;;5961904;27;20402;-75
2023/09/09 06:46:37;;;;;;;3.55;2.42;;;;;;;;;;5962893;27;20066;-75
2023/09/09 06:49:28;;;;;;;3.53;2.20;;;;;;;;;;5982433;27;20478;-76
2023/09/09 06:52:18;;;;;;;4.00;2.33;;;;;;;;;;5981925;27;20409;-75
2023/09/09 06:55:09;;;;;;;4.40;3.10;;;;;;;;;;5981062;27;20050;-75
2023/09/09 06:58:01;;;;;;;3.65;1.85;;;;;;;;;;5944239;28;20040;-76
2023/09/09 07:00:53;;;;;;;4.50;1.88;;;;;;;;;;5963561;27;20043;-74
2023/09/09 07:03:43;;;;;;;2.38;1.52;;;;;;;;;;5960508;27;20050;-76
2023/09/09 07:06:34;;;;;;;3.65;2.45;;;;;;;;;;5965013;27;20139;-75
2023/09/09 07:09:25;;;;;;;3.78;2.10;;;;;;;;;;5948574;27;20047;-76
2023/09/09 07:12:16;;;;;;;4.70;2.35;;;;;;;;;;5967501;27;20046;-75
2023/09/09 07:15:07;;;;;;;3.03;2.28;;;;;;;;;;5981874;27;20043;-75
2023/09/09 07:17:59;;;;;;;3.60;1.80;;;;;;;;;;5963968;27;20040;-74
2023/09/09 07:20:49;;;;;;;2.63;1.45;;;;;;;;;;5975965;27;20046;-76
2023/09/09 07:23:40;;;;;;;3.90;2.15;;;;;;;;;;5959612;27;20110;-75
2023/09/09 07:26:31;;;;;;;3.08;1.88;;;;;;;;;;5938204;28;20054;-75
2023/09/09 07:29:22;;;;;;;3.97;1.85;;;;;;;;;;5960566;27;20109;-75
2023/09/09 07:32:12;;;;;;;2.22;1.73;;;;;;;;;;5960060;27;20149;-75
2023/09/09 07:35:04;;;;;;;4.65;1.65;;;;;;;;;;5963275;27;20047;-75
2023/09/09 07:37:55;;;;;;;4.13;1.83;;;;;;;;;;5958504;27;20046;-75
2023/09/09 07:40:46;;;;;;;3.45;1.42;;;;;;;;;;5951833;28;20051;-75
2023/09/09 07:43:37;;;;;;;4.10;2.53;;;;;;;;;;5949977;27;20097;-75
2023/09/09 07:46:28;;;;;;;3.72;2.08;;;;;;;;;;5957078;27;20118;-75
2023/09/09 07:49:21;;;;;;;2.00;1.40;;;;;;;;;;5956829;28;20398;-75
2023/09/09 07:52:12;;;;;;;5.47;2.22;;;;;;;;;;5958727;28;20049;-75
2023/09/09 07:55:03;;;;;;;2.42;1.30;;;;;;;;;;5944916;28;20055;-75
2023/09/09 07:57:54;;;;;;;3.58;2.22;;;;;;;;;;5956365;28;20048;-75
2023/09/09 08:00:46;;;;;;;1.65;1.55;;;;;;;;;;5934173;28;20059;-75
2023/09/09 08:03:37;;;;;;;63.50;2.45;;;;;;;;;;5947141;27;20042;-75
2023/09/09 08:06:29;;;;;;;3.45;1.65;;;;;;;;;;5948348;27;20154;-77
2023/09/09 08:09:23;;;;;;;1.95;1.42;;;;;;;;;;5964346;27;20526;-75
2023/09/09 08:12:13;;;;;;;3.42;1.33;;;;;;;;;;5969320;27;20063;-75
2023/09/09 08:15:06;;;;;;;1.90;1.55;;;;;;;;;;5968883;27;20040;-76
2023/09/09 08:17:56;;;;;;;3.17;1.45;;;;;;;;;;5965873;27;20039;-76
2023/09/09 08:20:50;;;;;;;1.55;0.95;;;;;;;;;;5966537;27;20061;-75
2023/09/09 08:23:41;;;;;;;2.13;1.65;;;;;;;;;;5968216;27;20482;-76
2023/09/09 08:26:32;;;;;;;1.25;1.10;;;;;;;;;;5965914;27;20046;-75
2023/09/09 08:29:22;;;;;;;1.60;1.13;;;;;;;;;;5971770;27;20148;-75
2023/09/09 08:32:13;;;;;;;3.65;1.40;;;;;;;;;;5965297;27;20050;-76
2023/09/09 08:35:07;;;;;;;1.63;1.17;;;;;;;;;;5968631;27;20112;-76
2023/09/09 08:37:59;;;;;;;1.63;1.13;;;;;;;;;;5965558;27;20047;-75
2023/09/09 08:41:08;;;;;;;1.15;0.90;;;;;;;;;;5954014;27;20054;-76
2023/09/09 08:44:14;;;;;;;2.85;1.40;;;;;;;;;;5969852;27;20031;-75
2023/09/09 08:47:05;;;;;;;1.02;0.93;;;;;;;;;;5966583;27;20501;-76
2023/09/09 08:50:00;;;;;;;3.30;1.05;;;;;;;;;;5949745;27;20047;-75
2023/09/09 08:52:55;;;;;;;2.47;1.02;;;;;;;;;;5940538;28;20474;-77
2023/09/09 08:55:46;;;;;;;3.10;1.25;;;;;;;;;;5958340;28;20418;-75
2023/09/09 08:58:37;;;;;;;2.25;1.58;;;;;;;;;;5929645;28;20125;-77
2023/09/09 09:01:30;;;;;;;3.28;0.90;;;;;;;;;;5959740;28;20057;-76
2023/09/09 09:04:21;;;;;;;2.53;1.75;;;;;;;;;;5935766;28;20052;-76
2023/09/09 09:07:12;;;;;;;1.33;1.02;;;;;;;;;;5916657;28;20047;-75
2023/09/09 09:10:04;;;;;;;2.65;1.40;;;;;;;;;;5957950;28;20390;-76
2023/09/09 09:12:55;;;;;;;2.20;1.33;;;;;;;;;;5960999;28;20438;-74
2023/09/09 09:15:45;;;;;;;1.80;0.88;;;;;;;;;;5966897;27;20055;-75
2023/09/09 09:18:36;;;;;;;3.72;1.05;;;;;;;;;;5942249;27;20036;-76
2023/09/09 09:21:31;;;;;;;3.30;1.42;;;;;;;;;;5935584;28;20119;-74
2023/09/09 09:24:26;;;;;;;2.30;1.20;;;;;;;;;;5919578;28;20048;-77
2023/09/09 09:27:17;;;;;;;2.97;1.60;;;;;;;;;;5918699;28;20055;-75
2023/09/09 09:30:11;;;;;;;1.38;1.08;;;;;;;;;;5936731;28;20051;-76
2023/09/09 09:33:02;;;;;;;3.80;1.23;;;;;;;;;;5936004;28;20516;-75
2023/09/09 09:35:53;;;;;;;2.67;1.52;;;;;;;;;;5935949;28;20552;-76
2023/09/09 09:38:44;;;;;;;1.85;0.90;;;;;;;;;;5934582;28;20037;-76
2023/09/09 09:41:39;;;;;;;2.97;1.05;;;;;;;;;;5935271;28;20046;-75
2023/09/09 09:44:30;;;;;;;2.67;1.85;;;;;;;;;;5934393;28;20518;-75
2023/09/09 09:47:20;;;;;;;3.70;1.05;;;;;;;;;;5917400;28;20064;-75
2023/09/09 09:50:28;;;;;;;2.15;1.70;;;;;;;;;;5966455;28;20074;-75
2023/09/09 09:53:19;;;;;;;1.52;1.00;;;;;;;;;;5941395;28;20040;-76
2023/09/09 09:56:13;;;;;;;1.33;1.20;;;;;;;;;;5966623;28;20410;-77
2023/09/09 09:59:05;;;;;;;7.47;1.40;;;;;;;;;;5962763;28;20051;-77
2023/09/09 10:01:57;;;;;;;2.30;1.45;;;;;;;;;;5946113;28;20090;-76
2023/09/09 10:04:51;;;;;;;2.88;0.90;;;;;;;;;;5963007;28;20499;-74
2023/09/09 10:07:45;;;;;;;3.53;1.83;;;;;;;;;;5967928;28;20035;-76
2023/09/09 10:10:39;;;;;;;4.18;1.13;;;;;;;;;;5938570;28;20071;-76
2023/09/09 10:13:39;;;;;;;5.82;1.85;;;;;;;;;;5962690;28;20052;-76
2023/09/09 10:16:36;;;;;;;5.15;1.58;;;;;;;;;;5932813;28;20040;-77
2023/09/09 10:19:27;;;;;;;1.83;1.30;;;;;;;;;;5947788;28;20043;-76
2023/09/09 10:22:20;;;;;;;3.28;1.60;;;;;;;;;;5940424;28;20122;-76
2023/09/09 10:25:11;;;;;;;1.30;1.00;;;;;;;;;;5943944;27;20386;-76
2023/09/09 10:28:05;;;;;;;1.40;1.00;;;;;;;;;;5939020;28;20849;-76
2023/09/09 10:30:59;;;;;;;1.17;0.82;;;;;;;;;;5943130;28;20662;-76
2023/09/09 10:33:51;;;;;;;3.13;1.33;;;;;;;;;;5907975;27;1138576;-75
2023/09/09 10:36:43;;;;;;;2.47;1.38;;;;;;;;;;5962153;27;20043;-76
2023/09/09 10:39:52;;;;;;;1.85;1.33;;;;;;;;;;5957104;28;20405;-75
2023/09/09 10:42:44;;;;;;;4.60;1.52;;;;;;;;;;5942463;27;20052;-76
2023/09/09 10:45:43;;;;;;;1.83;0.70;;;;;;;;;;5911668;28;20478;-76
2023/09/09 10:48:33;;;;;;;1.92;0.80;;;;;;;;;;5953218;28;20039;-77
2023/09/09 10:51:28;;;;;;;3.25;1.48;;;;;;;;;;5939982;28;20047;-75
2023/09/09 10:54:24;;;;;;;2.03;1.08;;;;;;;;;;5949218;28;20035;-75
2023/09/09 10:57:15;;;;;;;4.25;1.83;;;;;;;;;;5944143;28;20502;-76
2023/09/09 11:00:09;;;;;;;3.67;1.10;;;;;;;;;;5934554;28;20040;-76
2023/09/09 11:03:00;;;;;;;1.13;0.82;;;;;;;;;;5953481;28;20047;-76
2023/09/09 11:06:07;;;;;;;2.28;1.30;;;;;;;;;;5956259;28;20044;-75
2023/09/09 11:09:00;;;;;;;2.58;1.45;;;;;;;;;;5934301;28;20032;-75
2023/09/09 11:11:54;;;;;;;3.05;2.03;;;;;;;;;;5926331;28;20185;-75
2023/09/09 11:14:56;;;;;;;2.78;1.70;;;;;;;;;;5940946;28;20047;-76
2023/09/09 11:17:46;;;;;;;5.25;2.30;;;;;;;;;;5961284;27;20043;-77
2023/09/09 11:20:37;;;;;;;2.15;1.20;;;;;;;;;;5955446;27;20043;-75
2023/09/09 11:23:31;;;;;;;3.22;1.67;;;;;;;;;;5945393;28;20081;-76
2023/09/09 11:26:23;;;;;;;1.35;0.88;;;;;;;;;;5944981;28;20043;-76
2023/09/09 11:29:16;;;;;;;3.38;1.63;;;;;;;;;;5964283;27;20036;-76
2023/09/09 11:32:29;;;;;;;2.42;0.93;;;;;;;;;;5958401;27;20039;-77
2023/09/09 11:35:22;;;;;;;3.92;1.98;;;;;;;;;;5958168;28;20281;-77
2023/09/09 11:38:13;;;;;;;1.42;1.33;;;;;;;;;;5959940;27;20035;-75
2023/09/09 11:41:04;;;;;;;1.92;1.10;;;;;;;;;;5957428;28;20418;-77
2023/09/09 11:44:07;;;;;;;3.25;1.73;;;;;;;;;;5960016;27;20046;-76
2023/09/09 11:46:58;;;;;;;2.35;1.15;;;;;;;;;;5957876;27;20490;-76
2023/09/09 11:49:49;;;;;;;3.67;1.75;;;;;;;;;;5959517;28;20147;-76
2023/09/09 11:52:40;;;;;;;2.75;1.75;;;;;;;;;;5959347;28;20048;-77
2023/09/09 11:55:31;;;;;;;2.17;1.80;;;;;;;;;;5946588;28;20042;-76
2023/09/09 11:58:22;;;;;;;1.55;1.23;;;;;;;;;;5960294;28;20051;-76
2023/09/09 12:01:13;;;;;;;1.95;1.45;;;;;;;;;;5963849;28;20054;-76
2023/09/09 12:04:06;;;;;;;6.00;1.95;;;;;;;;;;5947608;28;20043;-77
2023/09/09 12:10:12;;;;;;;3.08;1.42;;;;;;;;;;5872323;27;20407;-76
2023/09/09 12:13:04;;;;;;;4.72;1.45;;;;;;;;;;5836620;28;20042;-75
2023/09/09 12:15:56;;;;;;;1.48;1.00;;;;;;;;;;5836058;28;20042;-76
2023/09/09 12:18:56;;;;;;;2.42;1.42;;;;;;;;;;5839022;28;20061;-75
2023/09/09 12:21:48;;;;;;;5.88;2.08;;;;;;;;;;5836800;28;20038;-75
2023/09/09 12:24:41;;;;;;;2.72;1.70;;;;;;;;;;5834160;28;20065;-75
2023/09/09 12:27:45;;;;;;;4.40;1.52;;;;;;;;;;5835837;28;20042;-75
2023/09/09 12:30:39;;;;;;;5.00;1.85;;;;;;;;;;5835569;28;20064;-76
2023/09/09 12:33:44;;;;;;;2.92;1.67;;;;;;;;;;5836073;28;20489;-75
2023/09/09 12:36:35;;;;;;;2.35;1.55;;;;;;;;;;5835378;28;20057;-75
2023/09/09 12:39:29;;;;;;;2.40;1.88;;;;;;;;;;5836378;28;20049;-75
2023/09/09 12:42:22;;;;;;;2.78;1.95;;;;;;;;;;5834519;28;20052;-75
2023/09/09 12:45:13;;;;;;;1.38;1.27;;;;;;;;;;5835475;28;20035;-75
2023/09/09 12:48:10;;;;;;;2.40;1.42;;;;;;;;;;5836240;28;20048;-75
2023/09/09 12:51:00;;;;;;;3.45;2.58;;;;;;;;;;5835668;28;20042;-76
2023/09/09 12:53:52;;;;;;;2.47;1.58;;;;;;;;;;5835888;28;20050;-76
2023/09/09 12:56:43;;;;;;;3.92;1.83;;;;;;;;;;5836452;28;20037;-76
2023/09/09 12:59:34;;;;;;;8.32;2.20;;;;;;;;;;5836731;28;20053;-75
2023/09/09 13:02:25;;;;;;;4.57;2.38;;;;;;;;;;5835891;28;20393;-75
2023/09/09 13:05:16;;;;;;;2.35;1.60;;;;;;;;;;5835563;28;20050;-75
2023/09/09 13:08:06;;;;;;;7.68;2.03;;;;;;;;;;5836092;28;20042;-75
2023/09/09 13:10:57;;;;;;;2.30;1.52;;;;;;;;;;5834966;28;20049;-75
2023/09/09 13:13:48;;;;;;;2.10;1.55;;;;;;;;;;5835523;28;20621;-76
2023/09/09 13:16:41;;;;;;;4.72;1.88;;;;;;;;;;5835590;28;20046;-75
2023/09/09 13:19:32;;;;;;;3.13;1.95;;;;;;;;;;5829806;28;20484;-76
2023/09/09 13:22:27;;;;;;;2.58;1.38;;;;;;;;;;5818990;28;20038;-75
2023/09/09 13:25:17;;;;;;;2.58;1.70;;;;;;;;;;5820027;28;20035;-75
2023/09/09 13:28:08;;;;;;;1.75;1.13;;;;;;;;;;5820212;28;20054;-74
2023/09/09 13:31:00;;;;;;;3.75;2.42;;;;;;;;;;5821374;28;20042;-75
2023/09/09 13:33:51;;;;;;;2.47;1.38;;;;;;;;;;5820791;28;20086;-75
2023/09/09 13:36:42;;;;;;;3.03;1.95;;;;;;;;;;5819317;28;20046;-73
2023/09/09 13:39:33;;;;;;;1.90;1.55;;;;;;;;;;5820961;28;20046;-74
2023/09/09 13:42:23;;;;;;;4.20;2.03;;;;;;;;;;5820736;28;20046;-74
2023/09/09 13:45:15;;;;;;;3.13;1.48;;;;;;;;;;5820517;28;20042;-75
2023/09/09 13:48:06;;;;;;;3.97;1.55;;;;;;;;;;5819666;28;20049;-75
2023/09/09 13:50:57;;;;;;;3.33;1.75;;;;;;;;;;5820052;28;20386;-74
2023/09/09 13:53:47;;;;;;;2.67;1.60;;;;;;;;;;5813434;28;20050;-74
2023/09/09 13:56:38;;;;;;;2.42;1.35;;;;;;;;;;5797512;28;20035;-74
2023/09/09 13:59:33;;;;;;;2.22;1.30;;;;;;;;;;5818125;28;20058;-76
2023/09/09 14:02:25;;;;;;;2.17;1.17;;;;;;;;;;5815201;28;20046;-78
2023/09/09 14:05:16;;;;;;;3.92;1.92;;;;;;;;;;5816225;28;20128;-76
2023/09/09 14:08:07;;;;;;;1.95;1.45;;;;;;;;;;5814244;28;20414;-75
2023/09/09 14:10:58;;;;;;;2.85;1.80;;;;;;;;;;5819093;28;20050;-74
2023/09/09 14:13:48;;;;;;;3.60;2.33;;;;;;;;;;5816166;28;20042;-74
2023/09/09 14:16:39;;;;;;;2.50;2.00;;;;;;;;;;5813721;28;20035;-76
2023/09/09 14:19:30;;;;;;;2.80;1.58;;;;;;;;;;5815728;28;20514;-76
2023/09/09 14:22:21;;;;;;;2.65;1.38;;;;;;;;;;5818392;28;20137;-75
2023/09/09 14:25:11;;;;;;;3.65;1.85;;;;;;;;;;5819026;28;20042;-77
2023/09/09 14:28:03;;;;;;;4.45;2.00;;;;;;;;;;5815893;28;20373;-76
2023/09/09 14:30:53;;;;;;;1.73;1.58;;;;;;;;;;5818544;28;20038;-75
2023/09/09 14:33:44;;;;;;;6.28;1.98;;;;;;;;;;5815930;28;20558;-77
2023/09/09 14:36:35;;;;;;;1.48;0.90;;;;;;;;;;5817418;28;20042;-75
2023/09/09 14:39:27;;;;;;;2.17;1.45;;;;;;;;;;5814129;28;20425;-76
2023/09/09 14:42:22;;;;;;;1.77;1.30;;;;;;;;;;5814741;28;20045;-76
2023/09/09 14:45:13;;;;;;;6.60;2.08;;;;;;;;;;5818476;28;20034;-76
2023/09/09 14:48:05;;;;;;;11.65;1.48;;;;;;;;;;5817290;28;20046;-75
2023/09/09 14:50:56;;;;;;;4.55;2.03;;;;;;;;;;5819774;28;20410;-75
2023/09/09 14:53:47;;;;;;;7.03;1.77;;;;;;;;;;5800920;28;20604;-76
2023/09/09 14:56:37;;;;;;;4.30;1.70;;;;;;;;;;5818327;28;20120;-77
2023/09/09 14:59:30;;;;;;;4.20;1.77;;;;;;;;;;5818282;28;20050;-76
2023/09/09 15:02:21;;;;;;;4.30;1.67;;;;;;;;;;5815272;28;20042;-77
2023/09/09 15:05:12;;;;;;;3.13;1.83;;;;;;;;;;5817920;28;20396;-76
2023/09/09 15:08:03;;;;;;;6.43;1.88;;;;;;;;;;5815117;28;20042;-76
2023/09/09 15:10:53;;;;;;;4.18;2.03;;;;;;;;;;5818435;28;20520;-76
2023/09/09 15:13:45;;;;;;;8.68;3.08;;;;;;;;;;5814028;28;20057;-75
2023/09/09 15:16:49;;;;;;;3.47;1.92;;;;;;;;;;5811346;28;20497;-76
2023/09/09 15:19:40;;;;;;;6.72;3.20;;;;;;;;;;5815399;28;20401;-77
2023/09/09 15:22:32;;;;;;;5.75;2.60;;;;;;;;;;5812781;28;20053;-77
2023/09/09 15:25:22;;;;;;;3.38;2.00;;;;;;;;;;5814795;28;20049;-77
2023/09/09 15:28:18;;;;;;;2.53;1.60;;;;;;;;;;5811283;28;20123;-76
2023/09/09 15:31:10;;;;;;;2.28;1.85;;;;;;;;;;5817314;28;20062;-77
2023/09/09 15:34:02;;;;;;;6.10;1.80;;;;;;;;;;5829709;28;20039;-78
2023/09/09 15:36:52;;;;;;;2.17;1.70;;;;;;;;;;5816093;28;20145;-77
2023/09/09 15:39:43;;;;;;;3.38;1.60;;;;;;;;;;5811442;28;20050;-76
2023/09/09 15:42:34;;;;;;;3.15;1.70;;;;;;;;;;5814350;28;20050;-76
2023/09/09 15:45:25;;;;;;;3.95;2.15;;;;;;;;;;5816164;28;20581;-76
2023/09/09 15:48:16;;;;;;;2.38;1.77;;;;;;;;;;5813231;28;20054;-77
2023/09/09 15:51:07;;;;;;;3.80;1.92;;;;;;;;;;5814643;28;20490;-76
2023/09/09 15:53:58;;;;;;;5.90;2.00;;;;;;;;;;5815109;28;20152;-77
2023/09/09 15:56:48;;;;;;;4.25;2.58;;;;;;;;;;5815302;28;20045;-76
2023/09/09 15:59:39;;;;;;;8.02;2.85;;;;;;;;;;5812939;28;20050;-76
2023/09/09 16:02:30;;;;;;;5.68;2.72;;;;;;;;;;5814373;28;20450;-76
2023/09/09 16:05:21;;;;;;;4.00;1.77;;;;;;;;;;5817225;28;20429;-76
2023/09/09 16:08:11;;;;;;;2.50;1.90;;;;;;;;;;5814239;28;20050;-77
2023/09/09 16:11:03;;;;;;;3.15;1.88;;;;;;;;;;5813152;28;20057;-77
2023/09/09 16:13:54;;;;;;;3.00;2.13;;;;;;;;;;5814988;28;20053;-76
2023/09/09 16:16:45;;;;;;;6.75;3.60;;;;;;;;;;5817075;28;20049;-77
2023/09/09 16:19:36;;;;;;;4.00;2.42;;;;;;;;;;5811436;28;20054;-76
2023/09/09 16:22:27;;;;;;;4.95;2.55;;;;;;;;;;5814070;28;20078;-76
2023/09/09 16:25:17;;;;;;;3.22;2.25;;;;;;;;;;5817036;28;20470;-77
2023/09/09 16:28:08;;;;;;;3.63;1.50;;;;;;;;;;5814193;28;20101;-76
2023/09/09 16:31:05;;;;;;;4.90;2.40;;;;;;;;;;5814430;28;20046;-76
2023/09/09 16:33:55;;;;;;;2.97;1.95;;;;;;;;;;5811141;28;20132;-77
2023/09/09 16:36:46;;;;;;;2.97;1.77;;;;;;;;;;5815491;28;20046;-76
2023/09/09 16:39:37;;;;;;;5.15;1.85;;;;;;;;;;5811000;28;20058;-76
2023/09/09 16:42:28;;;;;;;2.83;1.85;;;;;;;;;;5812400;28;20043;-76
2023/09/09 16:45:18;;;;;;;13.40;2.35;;;;;;;;;;5816858;28;20128;-77
2023/09/09 16:48:12;;;;;;;1.85;1.63;;;;;;;;;;5813899;28;20049;-76
2023/09/09 16:51:03;;;;;;;4.75;3.22;;;;;;;;;;5815258;28;20250;-76
2023/09/09 16:53:54;;;;;;;6.78;3.40;;;;;;;;;;5822607;28;20045;-76
2023/09/09 16:56:45;;;;;;;4.20;2.95;;;;;;;;;;5821560;28;20051;-77
2023/09/09 16:59:40;;;;;;;7.68;2.30;;;;;;;;;;5821410;28;20042;-77
2023/09/09 17:02:30;;;;;;;5.63;3.00;;;;;;;;;;5818432;28;20073;-76
2023/09/09 17:05:22;;;;;;;5.43;3.72;;;;;;;;;;5819025;28;20038;-77
2023/09/09 17:08:14;;;;;;;10.45;3.10;;;;;;;;;;5820723;28;20409;-77
2023/09/09 17:11:04;;;;;;;5.43;3.08;;;;;;;;;;5820241;28;20409;-76
2023/09/09 17:13:56;;;;;;;3.58;2.50;;;;;;;;;;5815751;28;20045;-77